Flight Track Log - Related Links

Times and Time Zones

All times are in EDT time to prevent confusion due to time zone crossing. See the N352VA flight status page for this flight to view local times or setup timezone preferences in your user account.

Time Position Orientation Groundspeed Altitude Reporting Facility
EDT Latitude Longitude Course Direction KTS MPH feet Rate Location/Type
Mon 11:14:07 AM 39.3500 -84.5667 218° Southwest 82 94 2,300  Level Cincinnati TRACON
Mon 11:15:07 AM 39.3333 -84.5833 218° Southwest 83 96 3,100 650 Climbing Cincinnati TRACON
Mon 11:16:07 AM 39.3333 -84.6167 270° West 89 102 3,600 432 Climbing Cincinnati TRACON
Mon 11:16:58 AM 39.3094 -84.6394 216° Southwest 138 159 3,900 53 Climbing Indianapolis Center
Mon 11:18:00 AM 39.2872 -84.6633 220° Southwest 122 140 3,700 -186 Descending Indianapolis Center
Mon 11:19:07 AM 39.2667 -84.7000 234° Southwest 107 123 3,500  Descending Cincinnati TRACON
Mon 11:20:07 AM 39.2500 -84.7333 237° Southwest 102 117 3,700 150 Climbing Cincinnati TRACON
Mon 11:21:07 AM 39.2333 -84.7667 237° Southwest 106 122 3,800 53 Climbing Cincinnati TRACON
Mon 11:22:01 AM 39.2167 -84.8000 237° Southwest 110 127 3,800  Level Cincinnati TRACON
Mon 11:23:01 AM 39.1833 -84.8167 201° Southwest 108 124 3,800  Level Cincinnati TRACON
Mon 11:24:01 AM 39.1667 -84.8333 218° Southwest 114 131 3,800  Level Cincinnati TRACON
Mon 11:25:07 AM 39.1500 -84.8667 237° Southwest 108 124 3,800 -48 Level Cincinnati TRACON
Mon 11:26:07 AM 39.1333 -84.9000 237° Southwest 110 127 3,700 -150 Descending Cincinnati TRACON
Mon 11:27:07 AM 39.1167 -84.9333 237° Southwest 118 136 3,500 -158 Descending Cincinnati TRACON
Mon 11:28:01 AM 39.1000 -84.9667 237° Southwest 110 127 3,400 53 Descending Cincinnati TRACON
Mon 11:29:01 AM 39.0833 -84.9833 218° Southwest 102 117 3,600 99 Climbing Cincinnati TRACON
Mon 11:30:02 AM 39.0667 -85.0167 237° Southwest 101 116 3,600  Level Cincinnati TRACON
Mon 11:31:02 AM 39.0500 -85.0500 237° Southwest 111 128 3,600  Level Cincinnati TRACON
Mon 11:32:01 AM 39.0333 -85.0833 237° Southwest 113 130 3,600  Level Cincinnati TRACON
Mon 11:33:02 AM 39.0167 -85.1167 237° Southwest 108 124 3,600  Level Cincinnati TRACON
Mon 11:34:02 AM 39.0000 -85.1500 237° Southwest 147 169 3,600  Level Cincinnati TRACON
Mon 11:35:02 AM 38.9667 -85.1833 218° Southwest 107 123 3,600 50 Level Cincinnati TRACON
Mon 11:36:02 AM 38.9500 -85.2000 218° Southwest 106 122 3,700 50 Climbing Cincinnati TRACON
Mon 11:37:02 AM 38.9333 -85.2333 237° Southwest 109 125 3,700  Level Cincinnati TRACON
Mon 11:38:02 AM 38.9000 -85.2500 201° Southwest 110 127 3,700 -50 Level Cincinnati TRACON
Mon 11:39:02 AM 38.8833 -85.2833 237° Southwest 111 128 3,600  Descending Cincinnati TRACON
Mon 11:40:02 AM 38.8500 -85.3000 201° Southwest 111 128 3,700  Climbing Cincinnati TRACON
Mon 11:41:02 AM 38.8333 -85.3333 237° Southwest 110 127 3,600 -100 Descending Cincinnati TRACON
Mon 11:42:02 AM 38.8167 -85.3667 237° Southwest 110 127 3,500 -333 Descending Cincinnati TRACON
Mon 11:44:02 AM 38.7833 -85.4167 229° Southwest 105 121 2,600 -365 Descending Cincinnati TRACON
Mon 11:45:03 AM 38.7500 -85.4500 218° Southwest 105 121 2,400 -149 Descending Cincinnati TRACON
Mon 11:46:03 AM 38.7333 -85.4333 142° Southeast 106 122 2,300 -150 Descending Cincinnati TRACON
Mon 11:47:03 AM 38.7333 -85.4000 90° East 115 132 2,100 -200 Descending Cincinnati TRACON

Login

Don't have an account? Register now (free) for customized features, flight alerts, and more!